^^
Station Historical Data
Daily Summary for February 13, 2018 Units:  English    Metric   Both
« Previous Day
Next Day »
Daily Weekly Monthly Yearly Custom
  High: Low: Average:
Temperature: TemperatureF °F 66.0 °F 73.3 °F
Dew Point: DewpointF °F 62.7 °F 67.8 °F
Humidity: Humidity% 49% 85%
Wind Speed: WindSpeedMPHmph 0.0mph 0mph
Wind Gust: WindSpeedGustMPHmph - -
Wind- - North
Pressure: PressureIn in 30.32 in -
Precipitation: 0.00 in    
Historical Graphs
 
 
Tabular Data for February 13, 2018
Time Temperature Dew Point Pressure Wind Wind Speed Wind Gust Humidity Rainfall Rate (Hourly) solar Conditions
TemperatureF °F DewpointF °F PressureIn in Calm     Humidity% HourlyPrecipIn in SolarRadiationWatts/m^2 W/m2 Conditions
00:01 71.1 °F 71.1 °F 30.33 in Calm     100% 0.00 in 0.0 W/m2 CLR
00:06 71.1 °F 71.1 °F 30.33 in Calm     100% 0.00 in 0.0 W/m2 CLR
00:11 71.1 °F 71.1 °F 30.33 in Calm     100% 0.00 in 0.0 W/m2 CLR
00:16 71.1 °F 71.1 °F 30.33 in Calm     100% 0.00 in 0.0 W/m2 BKN
00:21 71.1 °F 71.1 °F 30.33 in Calm     100% 0.00 in 0.0 W/m2 BKN
00:26 71.1 °F 71.1 °F 30.33 in Calm     100% 0.00 in 0.0 W/m2 BKN
00:31 71.1 °F 71.1 °F 30.33 in Calm     100% 0.00 in 0.0 W/m2 BKN
00:36 71.1 °F 71.1 °F 30.33 in Calm     100% 0.00 in 0.0 W/m2 BKN
00:41 71.1 °F 71.1 °F 30.33 in Calm     100% 0.00 in 0.0 W/m2 BKN
00:46 71.1 °F 71.1 °F 30.33 in Calm     100% 0.00 in 0.0 W/m2 BKN
00:51 71.1 °F 71.1 °F 30.33 in Calm     100% 0.00 in 0.0 W/m2 BKN
00:56 71.1 °F 71.1 °F 30.33 in Calm     100% 0.00 in 0.0 W/m2 BKN
01:01 72.0 °F 70.8 °F 30.34 in Calm     96% 0.00 in 0.0 W/m2 OVC
01:06 72.0 °F 70.8 °F 30.34 in Calm     96% 0.00 in 0.0 W/m2 OVC
01:11 72.0 °F 70.8 °F 30.34 in Calm     96% 0.00 in 0.0 W/m2 OVC
01:16 72.0 °F 70.8 °F 30.34 in Calm     96% 0.00 in 0.0 W/m2 OVC
01:21 72.0 °F 70.8 °F 30.34 in Calm     96% 0.00 in 0.0 W/m2 OVC
01:26 72.0 °F 70.8 °F 30.34 in Calm     96% 0.00 in 0.0 W/m2 OVC
01:31 71.1 °F 69.9 °F 30.34 in Calm     96% 0.00 in 0.0 W/m2 OVC
01:36 71.1 °F 69.9 °F 30.34 in Calm     96% 0.00 in 0.0 W/m2 OVC
01:41 71.1 °F 69.9 °F 30.34 in Calm     96% 0.00 in 0.0 W/m2 OVC
01:46 71.1 °F 69.9 °F 30.34 in Calm     96% 0.00 in 0.0 W/m2 OVC
01:51 71.1 °F 69.9 °F 30.34 in Calm     96% 0.00 in 0.0 W/m2 OVC
01:56 71.1 °F 69.9 °F 30.34 in Calm     96% 0.00 in 0.0 W/m2 OVC
02:01 70.0 °F 70.0 °F 30.33 in Calm     100% 0.00 in 0.0 W/m2 OVC
02:06 70.0 °F 70.0 °F 30.33 in Calm     100% 0.00 in 0.0 W/m2 OVC
02:11 70.0 °F 70.0 °F 30.33 in Calm     100% 0.00 in 0.0 W/m2 OVC
02:16 70.0 °F 70.0 °F 30.33 in Calm     100% 0.00 in 0.0 W/m2 OVC
02:21 70.0 °F 70.0 °F 30.33 in Calm     100% 0.00 in 0.0 W/m2 OVC
02:26 70.0 °F 70.0 °F 30.33 in Calm     100% 0.00 in 0.0 W/m2 OVC
02:31 70.0 °F 70.0 °F 30.33 in Calm     100% 0.00 in 0.0 W/m2 OVC
02:36 70.0 °F 70.0 °F 30.33 in Calm     100% 0.00 in 0.0 W/m2 OVC
02:41 70.0 °F 70.0 °F 30.33 in Calm     100% 0.00 in 0.0 W/m2 OVC
02:46 70.0 °F 70.0 °F 30.33 in Calm     100% 0.00 in 0.0 W/m2 OVC
02:51 70.0 °F 70.0 °F 30.33 in Calm     100% 0.00 in 0.0 W/m2 OVC
02:56 70.0 °F 70.0 °F 30.33 in Calm     100% 0.00 in 0.0 W/m2 OVC
03:01 71.1 °F 71.1 °F 30.32 in Calm     100% 0.00 in 0.0 W/m2 OVC
03:06 71.1 °F 71.1 °F 30.32 in Calm     100% 0.00 in 0.0 W/m2 OVC
03:11 71.1 °F 71.1 °F 30.32 in Calm     100% 0.00 in 0.0 W/m2 OVC
03:16 71.1 °F 71.1 °F 30.32 in Calm     100% 0.00 in 0.0 W/m2 OVC
03:21 71.1 °F 71.1 °F 30.32 in Calm     100% 0.00 in 0.0 W/m2 OVC
03:26 71.1 °F 71.1 °F 30.32 in Calm     100% 0.00 in 0.0 W/m2 OVC
03:31 71.1 °F 71.1 °F 30.32 in Calm     100% 0.00 in 0.0 W/m2 OVC
03:36 71.1 °F 71.1 °F 30.32 in Calm     100% 0.00 in 0.0 W/m2 OVC
03:41 71.1 °F 71.1 °F 30.32 in Calm     100% 0.00 in 0.0 W/m2 OVC
03:46 71.1 °F 71.1 °F 30.32 in Calm     100% 0.00 in 0.0 W/m2 OVC
03:51 71.1 °F 71.1 °F 30.32 in Calm     100% 0.00 in 0.0 W/m2 OVC
03:56 71.1 °F 71.1 °F 30.32 in Calm     100% 0.00 in 0.0 W/m2 OVC
04:01 71.1 °F 71.1 °F 30.33 in Calm     100% 0.00 in 0.0 W/m2 OVC
04:06 71.1 °F 71.1 °F 30.33 in Calm     100% 0.00 in 0.0 W/m2 OVC
04:11 71.1 °F 71.1 °F 30.33 in Calm     100% 0.00 in 0.0 W/m2 OVC
04:16 71.1 °F 71.1 °F 30.33 in Calm     100% 0.00 in 0.0 W/m2 OVC
04:21 71.1 °F 71.1 °F 30.33 in Calm     100% 0.00 in 0.0 W/m2 OVC
04:26 71.1 °F 71.1 °F 30.33 in Calm     100% 0.00 in 0.0 W/m2 OVC
04:32 71.1 °F 71.1 °F 30.33 in Calm     100% 0.00 in 0.0 W/m2 OVC
04:37 71.1 °F 71.1 °F 30.33 in Calm     100% 0.00 in 0.0 W/m2 OVC
04:42 71.1 °F 71.1 °F 30.33 in Calm     100% 0.00 in 0.0 W/m2 OVC
04:47 71.1 °F 71.1 °F 30.33 in Calm     100% 0.00 in 0.0 W/m2 OVC
04:52 71.1 °F 71.1 °F 30.33 in Calm     100% 0.00 in 0.0 W/m2 OVC
04:57 71.1 °F 71.1 °F 30.33 in Calm     100% 0.00 in 0.0 W/m2 OVC
05:02 71.1 °F 71.1 °F 30.34 in Calm     100% 0.00 in 0.0 W/m2 OVC
05:07 71.1 °F 71.1 °F 30.34 in Calm     100% 0.00 in 0.0 W/m2 OVC
05:12 71.1 °F 71.1 °F 30.34 in Calm     100% 0.00 in 0.0 W/m2 OVC
05:17 71.1 °F 69.9 °F 30.34 in Calm     96% 0.00 in 0.0 W/m2 OVC
05:22 71.1 °F 69.9 °F 30.34 in Calm     96% 0.00 in 0.0 W/m2 OVC
05:27 71.1 °F 69.9 °F 30.34 in Calm     96% 0.00 in 0.0 W/m2 OVC
05:32 71.1 °F 69.9 °F 30.34 in Calm     96% 0.00 in 0.0 W/m2 OVC
05:37 71.1 °F 69.9 °F 30.34 in Calm     96% 0.00 in 0.0 W/m2 OVC
05:42 71.1 °F 69.9 °F 30.34 in Calm     96% 0.00 in 0.0 W/m2 OVC
05:47 71.1 °F 69.9 °F 30.34 in Calm     96% 0.00 in 0.0 W/m2 OVC
05:52 71.1 °F 69.9 °F 30.34 in Calm     96% 0.00 in 0.0 W/m2 OVC
05:57 71.1 °F 69.9 °F 30.34 in Calm     96% 0.00 in 0.0 W/m2 OVC
06:02 69.1 °F 69.1 °F 30.35 in Calm     100% 0.00 in 0.0 W/m2 CLR
06:07 69.1 °F 69.1 °F 30.35 in Calm     100% 0.00 in 0.0 W/m2 CLR
06:12 69.1 °F 69.1 °F 30.35 in Calm     100% 0.00 in 0.0 W/m2 CLR
06:17 69.1 °F 69.1 °F 30.35 in Calm     100% 0.00 in 0.0 W/m2 CLR
06:22 69.1 °F 69.1 °F 30.35 in Calm     100% 0.00 in 0.0 W/m2 CLR
06:27 69.1 °F 69.1 °F 30.35 in Calm     100% 0.00 in 0.0 W/m2 CLR
06:32 69.1 °F 69.1 °F 30.35 in Calm     100% 0.00 in 0.0 W/m2 CLR
06:37 69.1 °F 69.1 °F 30.35 in Calm     100% 0.00 in 0.0 W/m2 CLR
06:42 69.1 °F 69.1 °F 30.35 in Calm     100% 0.00 in 0.0 W/m2 CLR
06:47 69.1 °F 69.1 °F 30.35 in Calm     100% 0.00 in 0.0 W/m2 OVC
06:52 69.1 °F 69.1 °F 30.35 in Calm     100% 0.00 in 0.0 W/m2 OVC
06:57 69.1 °F 69.1 °F 30.35 in Calm     100% 0.00 in 0.0 W/m2 OVC
07:02 70.0 °F 70.0 °F 30.36 in Calm     100% 0.00 in 0.0 W/m2 OVC
07:07 70.0 °F 70.0 °F 30.36 in Calm     100% 0.00 in 0.0 W/m2 OVC
07:12 70.0 °F 70.0 °F 30.36 in Calm     100% 0.00 in 0.0 W/m2 OVC
07:17 70.0 °F 70.0 °F 30.36 in Calm     100% 0.00 in 0.0 W/m2 OVC
07:22 70.0 °F 70.0 °F 30.36 in Calm     100% 0.00 in 0.0 W/m2 OVC
07:27 70.0 °F 70.0 °F 30.36 in Calm     100% 0.00 in 0.0 W/m2 OVC
07:32 70.0 °F 70.0 °F 30.36 in Calm     100% 0.00 in 0.0 W/m2 OVC
07:37 70.0 °F 70.0 °F 30.36 in Calm     100% 0.00 in 0.0 W/m2 OVC
07:42 70.0 °F 70.0 °F 30.36 in Calm     100% 0.00 in 0.0 W/m2 OVC
07:47 70.0 °F 70.0 °F 30.39 in Calm     100% 0.00 in 0.0 W/m2 OVC
07:52 70.0 °F 70.0 °F 30.39 in Calm     100% 0.00 in 0.0 W/m2 OVC
07:57 70.0 °F 70.0 °F 30.39 in Calm     100% 0.00 in 0.0 W/m2 OVC
08:02 71.1 °F 71.1 °F 30.39 in Calm     100% 0.00 in 0.0 W/m2 OVC
08:07 71.1 °F 71.1 °F 30.39 in Calm     100% 0.00 in 0.0 W/m2 OVC
08:12 71.1 °F 71.1 °F 30.39 in Calm     100% 0.00 in 0.0 W/m2 OVC
08:17 71.1 °F 71.1 °F 30.39 in Calm     100% 0.00 in 0.0 W/m2 OVC
08:22 71.1 °F 71.1 °F 30.39 in Calm     100% 0.00 in 0.0 W/m2 OVC
08:27 71.1 °F 71.1 °F 30.39 in Calm     100% 0.00 in 0.0 W/m2 OVC
08:32 71.1 °F 71.1 °F 30.39 in Calm     100% 0.00 in 0.0 W/m2 OVC
08:37 71.1 °F 71.1 °F 30.39 in Calm     100% 0.00 in 0.0 W/m2 OVC
08:42 71.1 °F 71.1 °F 30.39 in Calm     100% 0.00 in 0.0 W/m2 OVC
08:47 72.0 °F 70.8 °F 30.42 in Calm     96% 0.00 in 0.0 W/m2 OVC
08:52 72.0 °F 70.8 °F 30.42 in Calm     96% 0.00 in 0.0 W/m2 OVC
08:57 72.0 °F 70.8 °F 30.42 in Calm     96% 0.00 in 0.0 W/m2 OVC
09:02 73.0 °F 70.9 °F 30.43 in Calm     93% 0.00 in 0.0 W/m2 OVC
09:07 73.0 °F 70.9 °F 30.43 in Calm     93% 0.00 in 0.0 W/m2 OVC
09:12 73.0 °F 70.9 °F 30.43 in Calm     93% 0.00 in 0.0 W/m2 OVC
09:17 73.0 °F 70.9 °F 30.43 in Calm     93% 0.00 in 0.0 W/m2 OVC
09:22 73.0 °F 70.9 °F 30.43 in Calm     93% 0.00 in 0.0 W/m2 OVC
09:27 73.0 °F 70.9 °F 30.43 in Calm     93% 0.00 in 0.0 W/m2 OVC
09:32 73.9 °F 70.8 °F 30.44 in Calm     90% 0.00 in 0.0 W/m2 OVC
09:37 73.9 °F 70.8 °F 30.44 in Calm     90% 0.00 in 0.0 W/m2 OVC
09:42 73.9 °F 70.8 °F 30.44 in Calm     90% 0.00 in 0.0 W/m2 OVC
09:47 73.9 °F 70.8 °F 30.44 in Calm     90% 0.00 in 0.0 W/m2 OVC
09:52 73.9 °F 70.8 °F 30.44 in Calm     90% 0.00 in 0.0 W/m2 OVC
09:57 73.9 °F 70.8 °F 30.44 in Calm     90% 0.00 in 0.0 W/m2 OVC
10:02 75.9 °F 69.7 °F 30.44 in Calm     81% 0.00 in 0.0 W/m2 OVC
10:07 75.9 °F 69.7 °F 30.44 in Calm     81% 0.00 in 0.0 W/m2 OVC
10:12 75.9 °F 69.7 °F 30.44 in Calm     81% 0.00 in 0.0 W/m2 OVC
10:17 75.9 °F 69.7 °F 30.44 in Calm     81% 0.00 in 0.0 W/m2 OVC
10:22 75.9 °F 69.7 °F 30.44 in Calm     81% 0.00 in 0.0 W/m2 OVC
10:27 75.9 °F 69.7 °F 30.44 in Calm     81% 0.00 in 0.0 W/m2 OVC
10:32 75.9 °F 69.7 °F 30.44 in Calm     81% 0.00 in 0.0 W/m2 OVC
10:37 75.9 °F 69.7 °F 30.44 in Calm     81% 0.00 in 0.0 W/m2 OVC
10:42 75.9 °F 69.7 °F 30.44 in Calm     81% 0.00 in 0.0 W/m2 OVC
10:47 75.9 °F 69.7 °F 30.44 in Calm     81% 0.00 in 0.0 W/m2 OVC
10:52 75.9 °F 69.7 °F 30.44 in Calm     81% 0.00 in 0.0 W/m2 OVC
10:57 75.9 °F 69.7 °F 30.44 in Calm     81% 0.00 in 0.0 W/m2 OVC
11:02 78.1 °F 68.7 °F 30.45 in Calm     73% 0.00 in 0.0 W/m2 OVC
11:07 78.1 °F 68.7 °F 30.45 in Calm     73% 0.00 in 0.0 W/m2 OVC
11:12 78.1 °F 68.7 °F 30.45 in Calm     73% 0.00 in 0.0 W/m2 OVC
11:17 78.1 °F 68.7 °F 30.45 in Calm     73% 0.00 in 0.0 W/m2 BKN
11:22 78.1 °F 68.7 °F 30.45 in Calm     73% 0.00 in 0.0 W/m2 BKN
11:27 78.1 °F 68.7 °F 30.45 in Calm     73% 0.00 in 0.0 W/m2 BKN
11:32 78.1 °F 68.7 °F 30.45 in Calm     73% 0.00 in 0.0 W/m2 BKN
11:37 78.1 °F 68.7 °F 30.45 in Calm     73% 0.00 in 0.0 W/m2 BKN
11:42 78.1 °F 68.7 °F 30.45 in Calm     73% 0.00 in 0.0 W/m2 BKN
11:47 78.1 °F 68.7 °F 30.45 in Calm     73% 0.00 in 0.0 W/m2 OVC
11:52 78.1 °F 68.7 °F 30.45 in Calm     73% 0.00 in 0.0 W/m2 OVC
11:57 78.1 °F 68.7 °F 30.45 in Calm     73% 0.00 in 0.0 W/m2 OVC
12:02 80.1 °F 65.9 °F 30.43 in Calm     62% 0.00 in 0.0 W/m2 OVC
12:07 80.1 °F 65.9 °F 30.43 in Calm     62% 0.00 in 0.0 W/m2 OVC
12:12 80.1 °F 65.9 °F 30.43 in Calm     62% 0.00 in 0.0 W/m2 OVC
12:17 80.1 °F 65.9 °F 30.43 in Calm     62% 0.00 in 0.0 W/m2 OVC
12:22 80.1 °F 65.9 °F 30.43 in Calm     62% 0.00 in 0.0 W/m2 OVC
12:27 80.1 °F 65.9 °F 30.43 in Calm     62% 0.00 in 0.0 W/m2 OVC
12:32 80.1 °F 65.9 °F 30.43 in Calm     62% 0.00 in 0.0 W/m2 OVC
12:37 80.1 °F 65.9 °F 30.43 in Calm     62% 0.00 in 0.0 W/m2 OVC
12:42 80.1 °F 65.9 °F 30.43 in Calm     62% 0.00 in 0.0 W/m2 OVC
12:47 80.1 °F 65.9 °F 30.43 in Calm     62% 0.00 in 0.0 W/m2 OVC
12:52 80.1 °F 65.9 °F 30.43 in Calm     62% 0.00 in 0.0 W/m2 OVC
12:57 80.1 °F 65.9 °F 30.43 in Calm     62% 0.00 in 0.0 W/m2 OVC
13:02 81.0 °F 65.8 °F 30.41 in Calm     60% 0.00 in 0.0 W/m2 OVC
13:07 81.0 °F 65.8 °F 30.41 in Calm     60% 0.00 in 0.0 W/m2 OVC
13:12 81.0 °F 65.8 °F 30.41 in Calm     60% 0.00 in 0.0 W/m2 OVC
13:17 81.0 °F 65.8 °F 30.41 in Calm     60% 0.00 in 0.0 W/m2 OVC
13:22 81.0 °F 65.8 °F 30.41 in Calm     60% 0.00 in 0.0 W/m2 OVC
13:27 81.0 °F 65.8 °F 30.41 in Calm     60% 0.00 in 0.0 W/m2 OVC
13:32 81.0 °F 65.8 °F 30.41 in Calm     60% 0.00 in 0.0 W/m2 OVC
13:37 81.0 °F 65.8 °F 30.41 in Calm     60% 0.00 in 0.0 W/m2 OVC
13:42 81.0 °F 65.8 °F 30.41 in Calm     60% 0.00 in 0.0 W/m2 OVC
13:47 81.0 °F 65.8 °F 30.41 in Calm     60% 0.00 in 0.0 W/m2 OVC
13:52 81.0 °F 65.8 °F 30.41 in Calm     60% 0.00 in 0.0 W/m2 OVC
13:57 81.0 °F 65.8 °F 30.41 in Calm     60% 0.00 in 0.0 W/m2 OVC
14:02 84.0 °F 62.8 °F 30.38 in Calm     49% 0.00 in 0.0 W/m2 OVC
14:07 84.0 °F 62.8 °F 30.38 in Calm     49% 0.00 in 0.0 W/m2 OVC
14:12 84.0 °F 62.8 °F 30.38 in Calm     49% 0.00 in 0.0 W/m2 OVC
14:17 84.0 °F 62.8 °F 30.38 in Calm     49% 0.00 in 0.0 W/m2 OVC
14:22 84.0 °F 62.8 °F 30.38 in Calm     49% 0.00 in 0.0 W/m2 OVC
14:27 84.0 °F 62.8 °F 30.38 in Calm     49% 0.00 in 0.0 W/m2 OVC
14:32 84.0 °F 62.8 °F 30.38 in Calm     49% 0.00 in 0.0 W/m2 OVC
14:37 84.0 °F 62.8 °F 30.38 in Calm     49% 0.00 in 0.0 W/m2 OVC
14:42 84.0 °F 62.8 °F 30.38 in Calm     49% 0.00 in 0.0 W/m2 OVC
14:47 84.0 °F 62.8 °F 30.38 in Calm     49% 0.00 in 0.0 W/m2 OVC
14:52 84.0 °F 62.8 °F 30.38 in Calm     49% 0.00 in 0.0 W/m2 OVC
14:57 84.0 °F 62.8 °F 30.38 in Calm     49% 0.00 in 0.0 W/m2 OVC
15:02 82.0 °F 62.7 °F 30.37 in Calm     52% 0.00 in 0.0 W/m2 OVC
15:07 82.0 °F 62.7 °F 30.37 in Calm     52% 0.00 in 0.0 W/m2 OVC
15:12 82.0 °F 62.7 °F 30.37 in Calm     52% 0.00 in 0.0 W/m2 OVC
15:17 82.0 °F 62.7 °F 30.37 in Calm     52% 0.00 in 0.0 W/m2 OVC
15:22 82.0 °F 62.7 °F 30.37 in Calm     52% 0.00 in 0.0 W/m2 OVC
15:27 82.0 °F 62.7 °F 30.37 in Calm     52% 0.00 in 0.0 W/m2 OVC
15:32 82.0 °F 62.7 °F 30.37 in Calm     52% 0.00 in 0.0 W/m2 OVC
15:37 82.0 °F 62.7 °F 30.37 in Calm     52% 0.00 in 0.0 W/m2 OVC
15:42 82.0 °F 62.7 °F 30.37 in Calm     52% 0.00 in 0.0 W/m2 OVC
15:47 82.0 °F 62.7 °F 30.37 in Calm     52% 0.00 in 0.0 W/m2 OVC
15:52 82.0 °F 62.7 °F 30.37 in Calm     52% 0.00 in 0.0 W/m2 OVC
15:57 82.0 °F 62.7 °F 30.37 in Calm     52% 0.00 in 0.0 W/m2 OVC
16:02 75.0 °F 67.7 °F 30.38 in Calm     78% 0.00 in 0.0 W/m2 OVC
16:07 75.0 °F 67.7 °F 30.38 in Calm     78% 0.00 in 0.0 W/m2 OVC
16:12 75.0 °F 67.7 °F 30.38 in Calm     78% 0.00 in 0.0 W/m2 OVC
16:17 75.0 °F 67.7 °F 30.38 in Calm     78% 0.00 in 0.0 W/m2 OVC
16:22 75.0 °F 67.7 °F 30.38 in Calm     78% 0.00 in 0.0 W/m2 OVC
16:27 75.0 °F 67.7 °F 30.38 in Calm     78% 0.00 in 0.0 W/m2 OVC
16:32 75.0 °F 67.7 °F 30.38 in Calm     78% 0.00 in 0.0 W/m2 OVC
16:37 75.0 °F 67.7 °F 30.38 in Calm     78% 0.00 in 0.0 W/m2 OVC
16:42 75.0 °F 67.7 °F 30.38 in Calm     78% 0.00 in 0.0 W/m2 OVC
16:47 75.0 °F 67.7 °F 30.38 in Calm     78% 0.00 in 0.0 W/m2 OVC
16:52 75.0 °F 67.7 °F 30.38 in Calm     78% 0.00 in 0.0 W/m2 OVC
16:57 75.0 °F 67.7 °F 30.38 in Calm     78% 0.00 in 0.0 W/m2 OVC
17:02 75.0 °F 68.8 °F 30.37 in Calm     81% 0.00 in 0.0 W/m2 BKN
17:07 75.0 °F 68.8 °F 30.37 in Calm     81% 0.00 in 0.0 W/m2 BKN
17:12 75.0 °F 68.8 °F 30.37 in Calm     81% 0.00 in 0.0 W/m2 BKN
17:17 75.0 °F 68.8 °F 30.37 in Calm     81% 0.00 in 0.0 W/m2 BKN
17:22 75.0 °F 68.8 °F 30.37 in Calm     81% 0.00 in 0.0 W/m2 BKN
17:27 75.0 °F 68.8 °F 30.37 in Calm     81% 0.00 in 0.0 W/m2 BKN
17:32 75.0 °F 68.8 °F 30.37 in Calm     81% 0.00 in 0.0 W/m2 FEW
17:37 75.0 °F 68.8 °F 30.37 in Calm     81% 0.00 in 0.0 W/m2 FEW
17:42 75.0 °F 68.8 °F 30.37 in Calm     81% 0.00 in 0.0 W/m2 FEW
17:47 75.0 °F 68.8 °F 30.37 in Calm     81% 0.00 in 0.0 W/m2 FEW
17:52 75.0 °F 68.8 °F 30.37 in Calm     81% 0.00 in 0.0 W/m2 FEW
17:57 75.0 °F 68.8 °F 30.37 in Calm     81% 0.00 in 0.0 W/m2 FEW
18:02 77.0 °F 66.9 °F 30.38 in Calm     71% 0.00 in 0.0 W/m2 BKN
18:07 77.0 °F 66.9 °F 30.38 in Calm     71% 0.00 in 0.0 W/m2 BKN
18:12 77.0 °F 66.9 °F 30.38 in Calm     71% 0.00 in 0.0 W/m2 BKN
18:17 77.0 °F 66.9 °F 30.38 in Calm     71% 0.00 in 0.0 W/m2 OVC
18:22 77.0 °F 66.9 °F 30.38 in Calm     71% 0.00 in 0.0 W/m2 OVC
18:27 77.0 °F 66.9 °F 30.38 in Calm     71% 0.00 in 0.0 W/m2 OVC
18:32 77.0 °F 66.9 °F 30.38 in Calm     71% 0.00 in 0.0 W/m2 OVC
18:37 77.0 °F 66.9 °F 30.38 in Calm     71% 0.00 in 0.0 W/m2 OVC
18:42 77.0 °F 66.9 °F 30.38 in Calm     71% 0.00 in 0.0 W/m2 OVC
18:47 77.0 °F 66.9 °F 30.38 in Calm     71% 0.00 in 0.0 W/m2 OVC
18:52 77.0 °F 66.9 °F 30.38 in Calm     71% 0.00 in 0.0 W/m2 OVC
18:57 77.0 °F 66.9 °F 30.38 in Calm     71% 0.00 in 0.0 W/m2 OVC
19:02 75.0 °F 65.8 °F 30.39 in Calm     73% 0.00 in 0.0 W/m2 OVC
19:07 75.0 °F 65.8 °F 30.39 in Calm     73% 0.00 in 0.0 W/m2 OVC
19:12 75.0 °F 65.8 °F 30.39 in Calm     73% 0.00 in 0.0 W/m2 OVC
19:17 75.0 °F 65.8 °F 30.39 in Calm     73% 0.00 in 0.0 W/m2 OVC
19:22 75.0 °F 65.8 °F 30.39 in Calm     73% 0.00 in 0.0 W/m2 OVC
19:27 75.0 °F 65.8 °F 30.39 in Calm     73% 0.00 in 0.0 W/m2 OVC
19:32 75.0 °F 65.8 °F 30.39 in Calm     73% 0.00 in 0.0 W/m2 OVC
19:37 75.0 °F 65.8 °F 30.39 in Calm     73% 0.00 in 0.0 W/m2 OVC
19:42 75.0 °F 65.8 °F 30.39 in Calm     73% 0.00 in 0.0 W/m2 OVC
19:47 75.0 °F 65.8 °F 30.39 in Calm     73% 0.00 in 0.0 W/m2 OVC
19:52 75.0 °F 65.8 °F 30.39 in Calm     73% 0.00 in 0.0 W/m2 OVC
19:57 75.0 °F 65.8 °F 30.39 in Calm     73% 0.00 in 0.0 W/m2 OVC
20:02 73.0 °F 68.9 °F 30.40 in Calm     87% 0.00 in 0.0 W/m2 OVC
20:07 73.0 °F 68.9 °F 30.40 in Calm     87% 0.00 in 0.0 W/m2 OVC
20:12 73.0 °F 68.9 °F 30.40 in Calm     87% 0.00 in 0.0 W/m2 OVC
20:17 73.0 °F 68.9 °F 30.40 in Calm     87% 0.00 in 0.0 W/m2 OVC
20:22 73.0 °F 68.9 °F 30.40 in Calm     87% 0.00 in 0.0 W/m2 OVC
20:27 73.0 °F 68.9 °F 30.40 in Calm     87% 0.00 in 0.0 W/m2 OVC
20:32 73.0 °F 68.9 °F 30.40 in Calm     87% 0.00 in 0.0 W/m2 OVC
20:37 73.0 °F 68.9 °F 30.40 in Calm     87% 0.00 in 0.0 W/m2 OVC
20:42 73.0 °F 68.9 °F 30.40 in Calm     87% 0.00 in 0.0 W/m2 OVC
20:47 70.0 °F 66.9 °F 30.42 in Calm     90% 0.00 in 0.0 W/m2 OVC
20:52 70.0 °F 66.9 °F 30.42 in Calm     90% 0.00 in 0.0 W/m2 OVC
20:54 70.0 °F 66.9 °F 30.42 in Calm     90% 0.00 in 0.0 W/m2 OVC
20:59 70.0 °F 66.9 °F 30.42 in Calm     90% 0.00 in 0.0 W/m2 OVC
21:04 68.0 °F 65.9 °F 30.43 in Calm     93% 0.00 in 0.0 W/m2 OVC
21:09 68.0 °F 65.9 °F 30.43 in Calm     93% 0.00 in 0.0 W/m2 OVC
21:14 68.0 °F 65.9 °F 30.43 in Calm     93% 0.00 in 0.0 W/m2 OVC
21:19 68.0 °F 65.9 °F 30.43 in Calm     93% 0.00 in 0.0 W/m2 OVC
21:24 68.0 °F 65.9 °F 30.43 in Calm     93% 0.00 in 0.0 W/m2 OVC
21:29 68.0 °F 65.9 °F 30.43 in Calm     93% 0.00 in 0.0 W/m2 OVC
21:34 68.0 °F 65.9 °F 30.43 in Calm     93% 0.00 in 0.0 W/m2 OVC
21:39 68.0 °F 65.9 °F 30.43 in Calm     93% 0.00 in 0.0 W/m2 OVC
21:44 68.0 °F 65.9 °F 30.43 in Calm     93% 0.00 in 0.0 W/m2 OVC
21:49 68.0 °F 65.9 °F 30.43 in Calm     93% 0.00 in 0.0 W/m2 OVC
21:54 68.0 °F 65.9 °F 30.43 in Calm     93% 0.00 in 0.0 W/m2 OVC
21:59 68.0 °F 65.9 °F 30.43 in Calm     93% 0.00 in 0.0 W/m2 OVC
22:04 66.0 °F 64.8 °F 30.44 in Calm     96% 0.00 in 0.0 W/m2 OVC
22:09 66.0 °F 64.8 °F 30.44 in Calm     96% 0.00 in 0.0 W/m2 OVC
22:14 66.0 °F 64.8 °F 30.44 in Calm     96% 0.00 in 0.0 W/m2 OVC
22:19 66.0 °F 64.8 °F 30.44 in Calm     96% 0.00 in 0.0 W/m2 OVC
22:24 66.0 °F 64.8 °F 30.44 in Calm     96% 0.00 in 0.0 W/m2 OVC
22:29 66.0 °F 64.8 °F 30.44 in Calm     96% 0.00 in 0.0 W/m2 OVC
22:34 66.0 °F 64.8 °F 30.44 in Calm     96% 0.00 in 0.0 W/m2 OVC
22:39 66.0 °F 64.8 °F 30.44 in Calm     96% 0.00 in 0.0 W/m2 OVC
22:44 66.0 °F 64.8 °F 30.44 in Calm     96% 0.00 in 0.0 W/m2 OVC
22:49 66.0 °F 64.8 °F 30.44 in Calm     96% 0.00 in 0.0 W/m2 OVC
22:54 66.0 °F 64.8 °F 30.44 in Calm     96% 0.00 in 0.0 W/m2 OVC
22:59 66.0 °F 64.8 °F 30.44 in Calm     96% 0.00 in 0.0 W/m2 OVC
23:04 66.0 °F 64.8 °F 30.45 in Calm     96% 0.00 in 0.0 W/m2 OVC
23:09 66.0 °F 64.8 °F 30.45 in Calm     96% 0.00 in 0.0 W/m2 OVC
23:14 66.0 °F 64.8 °F 30.45 in Calm     96% 0.00 in 0.0 W/m2 OVC
23:19 66.0 °F 64.8 °F 30.45 in Calm     96% 0.00 in 0.0 W/m2 OVC
23:24 66.0 °F 64.8 °F 30.45 in Calm     96% 0.00 in 0.0 W/m2 OVC
23:29 66.0 °F 64.8 °F 30.45 in Calm     96% 0.00 in 0.0 W/m2 OVC
23:34 66.0 °F 64.8 °F 30.45 in Calm     96% 0.00 in 0.0 W/m2 OVC
23:39 66.0 °F 64.8 °F 30.45 in Calm     96% 0.00 in 0.0 W/m2 OVC
23:44 66.0 °F 64.8 °F 30.45 in Calm     96% 0.00 in 0.0 W/m2 OVC
23:49 66.0 °F 64.8 °F 30.45 in Calm     96% 0.00 in 0.0 W/m2 OVC
23:54 66.0 °F 64.8 °F 30.45 in Calm     96% 0.00 in 0.0 W/m2 OVC
23:59 66.0 °F 64.8 °F 30.45 in Calm     96% 0.00 in 0.0 W/m2 OVC
Lake Mary, FL, USA
Compliments of Weather Underground - 1.75 mb